Station info - map view · info · telemetry · weather · raw · status · beacons · messages · bulletins · browse · moving · my account
Callsign, ship name or locator: Clear       
It is possible to search using wildcards (*?) after a prefix. Example: OH*
APRS station SQ5SSZ-9 - show graphs
Map loading...
Comment: 439.425MHz '73 Arek!
Mic-E message: En route
Location: 52°25.16' N 20°44.29' E - locator KO02IK80NP - show map - static map
1.2 miles Southeast bearing 130° from Nowy Dwór Mazowiecki, Powiat nowodworski, Masovian Voivodeship, Poland [?]
6.6 miles Northwest bearing 314° from Dziekanów Leśny, Powiat warszawski zachodni, Masovian Voivodeship, Poland
17.5 miles Northwest bearing 319° from Warsaw, Masovian Voivodeship, Poland
71.0 miles Northeast bearing 49° from Łódź, Łódź Voivodeship, Poland
Last position: 2017-12-03 09:26:42 EST (9d 18h47m ago)
2017-12-03 15:26:42 CET local time at Nowy Dwór Mazowiecki, Poland [?]
Altitude: 240 ft
Course: 80°
Speed: 12 MPH
Device: Kenwood: TM-D710 (rig)
Last path: SQ5SSZ-9>UR2U16 via WIDE1-1,WIDE2-2,qAR,SR5NLK (good)
Positions stored: 84163
Other SSIDs: SQ5SSZ SQ5SSZ-5
Stations near current position of SQ5SSZ-9 - show more
callsign distance last heard - EST      callsign distance last heard - EST
SQ5X458.1 yards 293°2017-12-13 04:03:02 SQ5SSZ0.4 miles 160°2017-12-13 04:10:38
SQ5SDI-80.4 miles 160°2017-11-20 02:32:06 SQ5SDN-80.8 miles 288°2017-12-05 17:51:30
SQ5SDN-70.8 miles 286°2017-11-19 04:07:59 SQ5SDN0.8 miles 285°2017-12-13 04:05:57
SQ5SDN-90.8 miles 285°2017-12-09 13:12:10 SP5NZZ1.0 miles 310°2017-12-10 02:09:22
SQ5SDI1.4 miles 313°2017-12-13 04:05:07 SR5ND2.2 miles 64°2017-12-13 04:04:37
SR5ND-12.2 miles 62°2017-12-13 04:09:43 SQ7EHO-52.6 miles 109°2017-12-13 02:29:58
SQ5RTW-33.4 miles 286°2017-11-18 03:18:45 SQ5H-43.5 miles 205°2017-11-20 16:36:11
SQ5H3.5 miles 205°2017-12-13 04:03:47 SQ5RTW-63.5 miles 280°2017-12-13 04:05:11
SP5OAB-53.8 miles 280°2017-11-25 02:40:29 WA777-54.0 miles 297°2017-12-07 06:46:19
SP5XJO-97.2 miles 107°2017-11-29 07:29:47 EW13347.9 miles 170°2017-12-13 03:58:56
Stations which heard SQ5SSZ-9 directly on radio –
callsign pkts first heard - EST last heard longest (tx => rx) longest at - EST
SQ5AAG-2 5 2017-12-03 07:31:42 2017-12-03 08:31:26 KO02MC > KO02KE 9.6 miles 315° 2017-12-03 08:12:39
SQ5OMO-2 52 2017-12-03 06:45:23 2017-12-03 09:26:44 KO02HK > KO02NH 21.1 miles 110° 2017-12-03 07:05:15
SR5DRK 7 2017-12-03 07:05:08 2017-12-03 09:21:51 KO02IK > KO01GI 74.9 miles 184° 2017-12-03 09:21:51
SR5NLK 33 2017-12-03 06:43:57 2017-12-03 09:26:42 KO02HK > KO02LJ 12.6 miles 110° 2017-12-03 07:05:34
SQ5LTL 1 2017-12-03 07:34:44 2017-12-03 07:34:44 KO02KE > KO01SN 52.3 miles 144° 2017-12-03 07:34:44
SR5RZP-2 23 2017-12-03 06:46:42 2017-12-03 09:12:45 KO02HK > KO02UE 49.3 miles 111° 2017-12-03 07:05:17
SR5DLA 12 2017-12-03 07:26:52 2017-12-03 08:21:10 KO02MB > KO02NM 32.0 miles 5° 2017-12-03 08:05:14
SQ5BAQ 2 2017-12-03 07:21:03 2017-12-03 07:43:20 KO02KH > KO02SE 29.2 miles 109° 2017-12-03 07:21:03
SR5NWR 3 2017-12-03 07:02:17 2017-12-03 08:45:30 KO02HK > KO02QV 44.3 miles 46° 2017-12-03 07:05:08
SQ9MDD-1 6 2017-12-03 07:26:25 2017-12-03 08:32:59 KO02KE > KO02LG 4.9 miles 40° 2017-12-03 08:27:03
SR5NWU 10 2017-12-03 07:47:29 2017-12-03 09:24:04 KO02IK > KO02MD 23.3 miles 143° 2017-12-03 09:24:04
SR8NPU 5 2017-12-03 07:34:49 2017-12-03 09:22:10 KO02IK > KO01XH 94.1 miles 144° 2017-12-03 09:22:10
SR5YAM 1 2017-12-03 07:51:00 2017-12-03 07:51:00 KO02MB > KO02JD 9.9 miles 297° 2017-12-03 07:51:00
SQ5SSY-3 4 2017-12-03 07:34:44 2017-12-03 08:18:28 KO02KE > KO02PB 19.4 miles 115° 2017-12-03 07:34:44
SQ5GVY-1 4 2017-12-03 06:47:58 2017-12-03 08:48:30 KO02HK > KO02MQ 24.2 miles 48° 2017-12-03 07:05:19
SR5NEB 39 2017-12-03 06:45:06 2017-12-03 09:23:10 KO02IK > KO02HC 23.5 miles 187° 2017-12-03 09:21:49
SR5MRF 7 2017-12-03 07:33:40 2017-12-03 08:21:30 KO02KE > KO02LE 5.6 miles 103° 2017-12-03 07:34:35
SQ5SCR-2 10 2017-12-03 07:29:58 2017-12-03 08:21:09 KO02MB > KO02NF 11.4 miles 16° 2017-12-03 07:51:10
SR5ND 61 2017-12-03 06:42:18 2017-12-03 09:24:50 KO02MC > KO02JK 25.2 miles 337° 2017-12-03 08:12:44

Only position packets which were originated by the station are shown here. The range statistics show some extra long hops, because some digipeaters do not correctly add themselves to the digipeater path. Please check the raw packets.
About this site
This page shows real-time information collected from the Automatic Position Reporting System Internet network (APRS-IS). APRS is used by amateur (ham) radio operators to transmit real-time position information, weather data, telemetry and messages over the radio. A vehicle equipped with a GPS receiver, a VHF transmitter or HF transceiver and a small computer device called a tracker transmits it's location, speed and course in a small data packet, which is then received by a nearby iGate receiving site which forwards the packet on the Internet. Systems connected to the Internet can send information on the APRS-IS without a radio transmitter, or collect and display information transmitted anywhere in the world.
FAQ · Blog · Discussion group · Linking to aprs.fi · AIS sites · Service status · Database statistics · Advertising on aprs.fi · Technical details · API · Change log · Planned changes · Credits and thanks · Terms Of Service · iPhone/iPad APRS